sensor_id;sensor_type;location;lat;lon;timestamp;P1;durP1;ratioP1;P2;durP2;ratioP2
70067;SDS011;57425;51.616;6.680;2023-06-22T00:00:42;5.97;;;3.10;;
70067;SDS011;57425;51.616;6.680;2023-06-22T00:03:08;6.70;;;3.15;;
70067;SDS011;57425;51.616;6.680;2023-06-22T00:05:34;5.70;;;3.45;;
70067;SDS011;57425;51.616;6.680;2023-06-22T00:08:04;5.45;;;2.97;;
70067;SDS011;57425;51.616;6.680;2023-06-22T00:10:31;4.90;;;2.97;;
70067;SDS011;57425;51.616;6.680;2023-06-22T00:12:57;6.40;;;3.75;;
70067;SDS011;57425;51.616;6.680;2023-06-22T00:15:22;7.15;;;3.00;;
70067;SDS011;57425;51.616;6.680;2023-06-22T00:17:48;9.82;;;3.10;;
70067;SDS011;57425;51.616;6.680;2023-06-22T00:20:14;5.70;;;3.75;;
70067;SDS011;57425;51.616;6.680;2023-06-22T00:22:42;6.18;;;3.40;;
70067;SDS011;57425;51.616;6.680;2023-06-22T00:25:08;5.90;;;3.22;;
70067;SDS011;57425;51.616;6.680;2023-06-22T00:27:35;6.18;;;3.53;;
70067;SDS011;57425;51.616;6.680;2023-06-22T00:30:01;6.90;;;3.33;;
70067;SDS011;57425;51.616;6.680;2023-06-22T00:32:27;5.65;;;3.38;;
70067;SDS011;57425;51.616;6.680;2023-06-22T00:34:53;6.18;;;3.30;;
70067;SDS011;57425;51.616;6.680;2023-06-22T00:37:19;4.63;;;3.95;;
70067;SDS011;57425;51.616;6.680;2023-06-22T00:39:46;7.32;;;4.05;;
70067;SDS011;57425;51.616;6.680;2023-06-22T00:42:12;8.75;;;4.28;;
70067;SDS011;57425;51.616;6.680;2023-06-22T00:44:38;5.20;;;3.72;;
70067;SDS011;57425;51.616;6.680;2023-06-22T00:47:03;5.57;;;3.42;;
70067;SDS011;57425;51.616;6.680;2023-06-22T00:49:29;8.95;;;3.65;;
70067;SDS011;57425;51.616;6.680;2023-06-22T00:51:55;7.18;;;3.97;;
70067;SDS011;57425;51.616;6.680;2023-06-22T00:54:22;6.70;;;3.88;;
70067;SDS011;57425;51.616;6.680;2023-06-22T00:56:52;6.25;;;3.95;;
70067;SDS011;57425;51.616;6.680;2023-06-22T00:59:20;10.05;;;3.70;;
70067;SDS011;57425;51.616;6.680;2023-06-22T01:01:46;12.63;;;3.58;;
70067;SDS011;57425;51.616;6.680;2023-06-22T01:04:12;8.00;;;4.53;;
70067;SDS011;57425;51.616;6.680;2023-06-22T01:06:59;7.45;;;3.42;;
70067;SDS011;57425;51.616;6.680;2023-06-22T01:09:32;6.15;;;3.80;;
70067;SDS011;57425;51.616;6.680;2023-06-22T01:12:08;8.07;;;3.85;;
70067;SDS011;57425;51.616;6.680;2023-06-22T01:14:42;5.35;;;3.65;;
70067;SDS011;57425;51.616;6.680;2023-06-22T01:17:20;9.50;;;3.67;;
70067;SDS011;57425;51.616;6.680;2023-06-22T01:19:48;9.45;;;4.15;;
70067;SDS011;57425;51.616;6.680;2023-06-22T01:22:20;11.95;;;3.95;;
70067;SDS011;57425;51.616;6.680;2023-06-22T01:31:07;6.25;;;4.45;;
70067;SDS011;57425;51.616;6.680;2023-06-22T01:33:35;5.70;;;3.75;;
70067;SDS011;57425;51.616;6.680;2023-06-22T01:36:04;5.70;;;3.92;;
70067;SDS011;57425;51.616;6.680;2023-06-22T01:38:31;5.25;;;3.92;;
70067;SDS011;57425;51.616;6.680;2023-06-22T01:40:59;7.70;;;4.13;;
70067;SDS011;57425;51.616;6.680;2023-06-22T01:43:26;6.00;;;3.80;;
70067;SDS011;57425;51.616;6.680;2023-06-22T01:45:53;7.75;;;4.68;;
70067;SDS011;57425;51.616;6.680;2023-06-22T01:48:20;6.07;;;4.03;;
70067;SDS011;57425;51.616;6.680;2023-06-22T01:50:47;10.82;;;5.20;;
70067;SDS011;57425;51.616;6.680;2023-06-22T01:53:13;8.50;;;4.90;;
70067;SDS011;57425;51.616;6.680;2023-06-22T01:55:39;7.30;;;4.60;;
70067;SDS011;57425;51.616;6.680;2023-06-22T01:58:04;7.63;;;4.43;;
70067;SDS011;57425;51.616;6.680;2023-06-22T02:00:34;7.80;;;4.43;;
70067;SDS011;57425;51.616;6.680;2023-06-22T02:03:14;7.75;;;4.65;;
70067;SDS011;57425;51.616;6.680;2023-06-22T02:05:51;6.47;;;4.88;;
70067;SDS011;57425;51.616;6.680;2023-06-22T02:08:24;14.52;;;5.75;;
70067;SDS011;57425;51.616;6.680;2023-06-22T02:10:54;7.25;;;4.80;;
70067;SDS011;57425;51.616;6.680;2023-06-22T02:13:24;6.93;;;4.30;;
70067;SDS011;57425;51.616;6.680;2023-06-22T02:15:50;11.38;;;4.65;;
70067;SDS011;57425;51.616;6.680;2023-06-22T02:18:16;8.25;;;5.28;;
70067;SDS011;57425;51.616;6.680;2023-06-22T02:20:42;7.97;;;4.90;;
70067;SDS011;57425;51.616;6.680;2023-06-22T02:23:08;7.00;;;4.47;;
70067;SDS011;57425;51.616;6.680;2023-06-22T02:25:34;11.98;;;4.45;;
70067;SDS011;57425;51.616;6.680;2023-06-22T02:28:00;13.65;;;5.15;;
70067;SDS011;57425;51.616;6.680;2023-06-22T02:30:26;8.85;;;4.60;;
70067;SDS011;57425;51.616;6.680;2023-06-22T02:32:52;7.53;;;5.00;;
70067;SDS011;57425;51.616;6.680;2023-06-22T02:35:26;6.57;;;4.15;;
70067;SDS011;57425;51.616;6.680;2023-06-22T02:38:00;7.60;;;4.07;;
70067;SDS011;57425;51.616;6.680;2023-06-22T02:40:27;6.28;;;4.05;;
70067;SDS011;57425;51.616;6.680;2023-06-22T02:42:54;7.15;;;4.32;;
70067;SDS011;57425;51.616;6.680;2023-06-22T02:45:20;7.80;;;5.07;;
70067;SDS011;57425;51.616;6.680;2023-06-22T02:47:46;9.23;;;4.80;;
70067;SDS011;57425;51.616;6.680;2023-06-22T02:50:13;8.20;;;5.10;;
70067;SDS011;57425;51.616;6.680;2023-06-22T02:52:39;6.43;;;4.03;;
70067;SDS011;57425;51.616;6.680;2023-06-22T02:55:05;8.70;;;5.20;;
70067;SDS011;57425;51.616;6.680;2023-06-22T02:57:32;8.57;;;4.57;;
70067;SDS011;57425;51.616;6.680;2023-06-22T02:59:59;6.43;;;4.38;;
70067;SDS011;57425;51.616;6.680;2023-06-22T03:02:25;8.00;;;4.55;;
70067;SDS011;57425;51.616;6.680;2023-06-22T03:04:51;7.63;;;4.60;;
70067;SDS011;57425;51.616;6.680;2023-06-22T03:07:18;7.45;;;4.63;;
70067;SDS011;57425;51.616;6.680;2023-06-22T03:09:45;5.50;;;4.03;;
70067;SDS011;57425;51.616;6.680;2023-06-22T03:12:11;9.95;;;4.32;;
70067;SDS011;57425;51.616;6.680;2023-06-22T03:14:37;9.20;;;4.53;;
70067;SDS011;57425;51.616;6.680;2023-06-22T03:17:04;6.63;;;4.72;;
70067;SDS011;57425;51.616;6.680;2023-06-22T03:19:30;9.27;;;4.78;;
70067;SDS011;57425;51.616;6.680;2023-06-22T03:21:57;7.60;;;4.78;;
70067;SDS011;57425;51.616;6.680;2023-06-22T03:24:24;8.63;;;4.78;;
70067;SDS011;57425;51.616;6.680;2023-06-22T03:26:49;7.50;;;4.68;;
70067;SDS011;57425;51.616;6.680;2023-06-22T03:29:15;11.38;;;4.88;;
70067;SDS011;57425;51.616;6.680;2023-06-22T03:31:41;8.75;;;4.35;;
70067;SDS011;57425;51.616;6.680;2023-06-22T03:34:06;11.63;;;5.50;;
70067;SDS011;57425;51.616;6.680;2023-06-22T03:36:32;11.23;;;6.00;;
70067;SDS011;57425;51.616;6.680;2023-06-22T03:38:58;9.02;;;4.85;;
70067;SDS011;57425;51.616;6.680;2023-06-22T03:41:23;8.07;;;4.60;;
70067;SDS011;57425;51.616;6.680;2023-06-22T03:43:49;10.38;;;5.35;;
70067;SDS011;57425;51.616;6.680;2023-06-22T03:46:14;12.13;;;5.35;;
70067;SDS011;57425;51.616;6.680;2023-06-22T03:48:40;9.23;;;4.97;;
70067;SDS011;57425;51.616;6.680;2023-06-22T03:51:06;10.45;;;5.85;;
70067;SDS011;57425;51.616;6.680;2023-06-22T03:53:31;10.48;;;5.40;;
70067;SDS011;57425;51.616;6.680;2023-06-22T03:55:57;8.60;;;5.45;;
70067;SDS011;57425;51.616;6.680;2023-06-22T03:58:23;11.25;;;5.47;;
70067;SDS011;57425;51.616;6.680;2023-06-22T04:00:51;7.55;;;5.38;;
70067;SDS011;57425;51.616;6.680;2023-06-22T04:03:18;8.98;;;5.38;;
70067;SDS011;57425;51.616;6.680;2023-06-22T04:05:44;10.32;;;5.97;;
70067;SDS011;57425;51.616;6.680;2023-06-22T04:08:10;11.00;;;5.13;;
70067;SDS011;57425;51.616;6.680;2023-06-22T04:10:37;10.10;;;6.35;;
70067;SDS011;57425;51.616;6.680;2023-06-22T04:13:03;10.93;;;5.95;;
70067;SDS011;57425;51.616;6.680;2023-06-22T04:15:29;11.43;;;6.07;;
70067;SDS011;57425;51.616;6.680;2023-06-22T04:17:54;11.82;;;5.40;;
70067;SDS011;57425;51.616;6.680;2023-06-22T04:20:21;8.52;;;5.32;;
70067;SDS011;57425;51.616;6.680;2023-06-22T04:22:46;9.38;;;5.72;;
70067;SDS011;57425;51.616;6.680;2023-06-22T04:25:14;9.05;;;5.53;;
70067;SDS011;57425;51.616;6.680;2023-06-22T04:27:40;12.65;;;5.80;;
70067;SDS011;57425;51.616;6.680;2023-06-22T04:30:06;11.07;;;6.30;;
70067;SDS011;57425;51.616;6.680;2023-06-22T04:32:33;9.05;;;5.57;;
70067;SDS011;57425;51.616;6.680;2023-06-22T04:35:01;9.48;;;5.78;;
70067;SDS011;57425;51.616;6.680;2023-06-22T04:37:31;10.85;;;5.78;;
70067;SDS011;57425;51.616;6.680;2023-06-22T04:39:57;8.48;;;5.63;;
70067;SDS011;57425;51.616;6.680;2023-06-22T04:42:23;9.30;;;6.05;;
70067;SDS011;57425;51.616;6.680;2023-06-22T04:44:50;8.68;;;5.35;;
70067;SDS011;57425;51.616;6.680;2023-06-22T04:47:16;9.82;;;5.57;;
70067;SDS011;57425;51.616;6.680;2023-06-22T04:49:44;8.25;;;5.55;;
70067;SDS011;57425;51.616;6.680;2023-06-22T04:52:10;10.48;;;7.15;;
70067;SDS011;57425;51.616;6.680;2023-06-22T04:54:38;8.77;;;5.60;;
70067;SDS011;57425;51.616;6.680;2023-06-22T04:57:12;9.45;;;5.95;;
70067;SDS011;57425;51.616;6.680;2023-06-22T04:59:38;8.88;;;5.75;;
70067;SDS011;57425;51.616;6.680;2023-06-22T05:02:06;8.68;;;5.72;;
70067;SDS011;57425;51.616;6.680;2023-06-22T05:04:32;10.13;;;5.68;;
70067;SDS011;57425;51.616;6.680;2023-06-22T05:07:00;9.45;;;5.55;;
70067;SDS011;57425;51.616;6.680;2023-06-22T05:09:26;11.80;;;6.15;;
70067;SDS011;57425;51.616;6.680;2023-06-22T05:11:52;10.60;;;5.82;;
70067;SDS011;57425;51.616;6.680;2023-06-22T05:14:18;10.02;;;5.18;;
70067;SDS011;57425;51.616;6.680;2023-06-22T05:16:44;8.55;;;4.97;;
70067;SDS011;57425;51.616;6.680;2023-06-22T05:19:10;7.68;;;4.68;;
70067;SDS011;57425;51.616;6.680;2023-06-22T05:21:37;9.60;;;6.10;;
70067;SDS011;57425;51.616;6.680;2023-06-22T05:24:03;9.25;;;5.43;;
70067;SDS011;57425;51.616;6.680;2023-06-22T05:26:30;9.30;;;5.65;;
70067;SDS011;57425;51.616;6.680;2023-06-22T05:28:57;11.35;;;6.45;;
70067;SDS011;57425;51.616;6.680;2023-06-22T05:31:23;11.05;;;5.88;;
70067;SDS011;57425;51.616;6.680;2023-06-22T05:33:50;8.65;;;5.13;;
70067;SDS011;57425;51.616;6.680;2023-06-22T05:36:17;12.75;;;6.22;;
70067;SDS011;57425;51.616;6.680;2023-06-22T05:38:45;8.77;;;5.25;;
70067;SDS011;57425;51.616;6.680;2023-06-22T05:41:11;10.68;;;5.45;;
70067;SDS011;57425;51.616;6.680;2023-06-22T05:43:36;10.10;;;5.65;;
70067;SDS011;57425;51.616;6.680;2023-06-22T05:46:03;14.90;;;6.47;;
70067;SDS011;57425;51.616;6.680;2023-06-22T05:48:29;9.38;;;5.30;;
70067;SDS011;57425;51.616;6.680;2023-06-22T05:50:55;10.70;;;6.63;;
70067;SDS011;57425;51.616;6.680;2023-06-22T05:53:20;10.45;;;5.63;;
70067;SDS011;57425;51.616;6.680;2023-06-22T05:55:46;7.85;;;4.50;;
70067;SDS011;57425;51.616;6.680;2023-06-22T05:58:12;10.80;;;5.68;;
70067;SDS011;57425;51.616;6.680;2023-06-22T06:00:38;8.38;;;5.43;;
70067;SDS011;57425;51.616;6.680;2023-06-22T06:03:04;13.50;;;6.15;;
70067;SDS011;57425;51.616;6.680;2023-06-22T06:05:32;8.15;;;5.03;;
70067;SDS011;57425;51.616;6.680;2023-06-22T06:07:59;13.85;;;6.15;;
70067;SDS011;57425;51.616;6.680;2023-06-22T06:10:26;11.02;;;5.72;;
70067;SDS011;57425;51.616;6.680;2023-06-22T06:12:52;11.07;;;6.13;;
70067;SDS011;57425;51.616;6.680;2023-06-22T06:15:18;12.35;;;5.72;;
70067;SDS011;57425;51.616;6.680;2023-06-22T06:17:50;8.73;;;5.32;;
70067;SDS011;57425;51.616;6.680;2023-06-22T06:20:18;10.68;;;5.68;;
70067;SDS011;57425;51.616;6.680;2023-06-22T06:22:48;13.98;;;7.15;;
70067;SDS011;57425;51.616;6.680;2023-06-22T06:25:14;9.82;;;5.65;;
70067;SDS011;57425;51.616;6.680;2023-06-22T06:27:42;9.73;;;5.70;;
70067;SDS011;57425;51.616;6.680;2023-06-22T06:30:08;9.32;;;6.53;;
70067;SDS011;57425;51.616;6.680;2023-06-22T06:32:38;10.68;;;6.07;;
70067;SDS011;57425;51.616;6.680;2023-06-22T06:35:07;9.07;;;5.32;;
70067;SDS011;57425;51.616;6.680;2023-06-22T06:37:38;10.25;;;6.10;;
70067;SDS011;57425;51.616;6.680;2023-06-22T06:40:08;11.77;;;6.25;;
70067;SDS011;57425;51.616;6.680;2023-06-22T06:42:42;9.38;;;5.32;;
70067;SDS011;57425;51.616;6.680;2023-06-22T06:45:14;11.35;;;5.90;;
70067;SDS011;57425;51.616;6.680;2023-06-22T06:47:41;9.40;;;5.47;;
70067;SDS011;57425;51.616;6.680;2023-06-22T06:50:07;9.95;;;5.30;;
70067;SDS011;57425;51.616;6.680;2023-06-22T06:52:34;9.57;;;5.72;;
70067;SDS011;57425;51.616;6.680;2023-06-22T06:54:59;9.30;;;5.63;;
70067;SDS011;57425;51.616;6.680;2023-06-22T06:57:25;10.23;;;5.70;;
70067;SDS011;57425;51.616;6.680;2023-06-22T06:59:56;7.95;;;5.20;;
70067;SDS011;57425;51.616;6.680;2023-06-22T07:02:22;8.10;;;5.50;;
70067;SDS011;57425;51.616;6.680;2023-06-22T07:04:48;13.43;;;5.82;;
70067;SDS011;57425;51.616;6.680;2023-06-22T07:07:14;12.30;;;5.63;;
70067;SDS011;57425;51.616;6.680;2023-06-22T07:09:40;10.05;;;5.35;;
70067;SDS011;57425;51.616;6.680;2023-06-22T07:12:06;12.25;;;4.82;;
70067;SDS011;57425;51.616;6.680;2023-06-22T07:14:32;10.32;;;5.50;;
70067;SDS011;57425;51.616;6.680;2023-06-22T07:16:58;10.82;;;6.47;;
70067;SDS011;57425;51.616;6.680;2023-06-22T07:19:24;14.07;;;5.82;;
70067;SDS011;57425;51.616;6.680;2023-06-22T07:21:51;15.45;;;7.07;;
70067;SDS011;57425;51.616;6.680;2023-06-22T07:24:16;10.38;;;6.22;;
70067;SDS011;57425;51.616;6.680;2023-06-22T07:26:42;11.80;;;6.00;;
70067;SDS011;57425;51.616;6.680;2023-06-22T07:29:11;12.90;;;5.43;;
70067;SDS011;57425;51.616;6.680;2023-06-22T07:31:36;9.82;;;5.22;;
70067;SDS011;57425;51.616;6.680;2023-06-22T07:34:02;9.52;;;5.75;;
70067;SDS011;57425;51.616;6.680;2023-06-22T07:36:29;10.25;;;5.75;;
70067;SDS011;57425;51.616;6.680;2023-06-22T07:38:55;10.75;;;6.05;;
70067;SDS011;57425;51.616;6.680;2023-06-22T07:41:20;9.23;;;5.97;;
70067;SDS011;57425;51.616;6.680;2023-06-22T07:43:46;15.63;;;6.20;;
70067;SDS011;57425;51.616;6.680;2023-06-22T07:46:12;10.25;;;5.82;;
70067;SDS011;57425;51.616;6.680;2023-06-22T07:48:38;9.93;;;5.70;;
70067;SDS011;57425;51.616;6.680;2023-06-22T07:51:04;8.75;;;4.95;;
70067;SDS011;57425;51.616;6.680;2023-06-22T07:53:31;14.00;;;6.53;;
70067;SDS011;57425;51.616;6.680;2023-06-22T07:55:56;9.50;;;5.47;;
70067;SDS011;57425;51.616;6.680;2023-06-22T07:58:22;11.20;;;5.97;;
70067;SDS011;57425;51.616;6.680;2023-06-22T08:00:47;9.55;;;5.57;;
70067;SDS011;57425;51.616;6.680;2023-06-22T08:03:14;10.75;;;4.82;;
70067;SDS011;57425;51.616;6.680;2023-06-22T08:05:40;14.40;;;5.25;;
70067;SDS011;57425;51.616;6.680;2023-06-22T08:08:05;13.90;;;7.22;;
70067;SDS011;57425;51.616;6.680;2023-06-22T08:10:31;15.88;;;6.97;;
70067;SDS011;57425;51.616;6.680;2023-06-22T08:12:56;17.00;;;6.88;;
70067;SDS011;57425;51.616;6.680;2023-06-22T08:15:22;10.27;;;5.43;;
70067;SDS011;57425;51.616;6.680;2023-06-22T08:17:48;16.67;;;5.57;;
70067;SDS011;57425;51.616;6.680;2023-06-22T08:20:13;10.35;;;5.97;;
70067;SDS011;57425;51.616;6.680;2023-06-22T08:22:40;16.08;;;7.07;;
70067;SDS011;57425;51.616;6.680;2023-06-22T08:25:06;9.02;;;5.03;;
70067;SDS011;57425;51.616;6.680;2023-06-22T08:27:32;11.48;;;5.25;;
70067;SDS011;57425;51.616;6.680;2023-06-22T08:29:58;12.30;;;7.15;;
70067;SDS011;57425;51.616;6.680;2023-06-22T08:32:25;8.52;;;5.25;;
70067;SDS011;57425;51.616;6.680;2023-06-22T08:34:52;13.35;;;5.72;;
70067;SDS011;57425;51.616;6.680;2023-06-22T08:37:19;11.13;;;6.22;;
70067;SDS011;57425;51.616;6.680;2023-06-22T08:39:45;10.25;;;5.50;;
70067;SDS011;57425;51.616;6.680;2023-06-22T08:42:11;8.52;;;5.63;;
70067;SDS011;57425;51.616;6.680;2023-06-22T08:44:37;10.07;;;5.57;;
70067;SDS011;57425;51.616;6.680;2023-06-22T08:47:02;8.70;;;4.97;;
70067;SDS011;57425;51.616;6.680;2023-06-22T08:49:28;10.45;;;5.28;;
70067;SDS011;57425;51.616;6.680;2023-06-22T08:51:54;11.07;;;6.25;;
70067;SDS011;57425;51.616;6.680;2023-06-22T08:54:21;11.98;;;5.97;;
70067;SDS011;57425;51.616;6.680;2023-06-22T08:56:47;9.00;;;5.22;;
70067;SDS011;57425;51.616;6.680;2023-06-22T08:59:13;9.93;;;5.97;;
70067;SDS011;57425;51.616;6.680;2023-06-22T09:01:38;12.35;;;5.85;;
70067;SDS011;57425;51.616;6.680;2023-06-22T09:04:04;10.88;;;5.93;;
70067;SDS011;57425;51.616;6.680;2023-06-22T09:06:31;11.32;;;6.03;;
70067;SDS011;57425;51.616;6.680;2023-06-22T09:08:57;9.18;;;5.82;;
70067;SDS011;57425;51.616;6.680;2023-06-22T09:11:24;8.90;;;5.72;;
70067;SDS011;57425;51.616;6.680;2023-06-22T09:13:50;9.10;;;5.40;;
70067;SDS011;57425;51.616;6.680;2023-06-22T09:16:17;10.23;;;6.57;;
70067;SDS011;57425;51.616;6.680;2023-06-22T09:18:45;9.85;;;5.90;;
70067;SDS011;57425;51.616;6.680;2023-06-22T09:21:12;12.07;;;6.07;;
70067;SDS011;57425;51.616;6.680;2023-06-22T09:23:38;10.13;;;5.72;;
70067;SDS011;57425;51.616;6.680;2023-06-22T09:26:03;13.27;;;6.68;;
70067;SDS011;57425;51.616;6.680;2023-06-22T09:28:29;9.02;;;5.47;;
70067;SDS011;57425;51.616;6.680;2023-06-22T09:30:55;10.65;;;5.40;;
70067;SDS011;57425;51.616;6.680;2023-06-22T09:33:23;11.93;;;5.90;;
70067;SDS011;57425;51.616;6.680;2023-06-22T09:35:49;9.27;;;5.45;;
70067;SDS011;57425;51.616;6.680;2023-06-22T09:38:16;8.50;;;5.50;;
70067;SDS011;57425;51.616;6.680;2023-06-22T09:40:41;8.60;;;5.40;;
70067;SDS011;57425;51.616;6.680;2023-06-22T09:43:07;10.85;;;5.72;;
70067;SDS011;57425;51.616;6.680;2023-06-22T09:45:33;11.88;;;5.00;;
70067;SDS011;57425;51.616;6.680;2023-06-22T09:47:58;9.98;;;5.60;;
70067;SDS011;57425;51.616;6.680;2023-06-22T09:50:24;10.68;;;5.88;;
70067;SDS011;57425;51.616;6.680;2023-06-22T09:52:50;10.65;;;4.55;;
70067;SDS011;57425;51.616;6.680;2023-06-22T09:55:19;9.05;;;4.80;;
70067;SDS011;57425;51.616;6.680;2023-06-22T09:57:45;12.18;;;6.57;;
70067;SDS011;57425;51.616;6.680;2023-06-22T10:00:11;10.15;;;5.40;;
70067;SDS011;57425;51.616;6.680;2023-06-22T10:02:38;12.35;;;5.65;;
70067;SDS011;57425;51.616;6.680;2023-06-22T10:05:04;13.18;;;6.75;;
70067;SDS011;57425;51.616;6.680;2023-06-22T10:07:30;10.30;;;5.13;;
70067;SDS011;57425;51.616;6.680;2023-06-22T10:09:56;9.50;;;4.95;;
70067;SDS011;57425;51.616;6.680;2023-06-22T10:12:21;11.27;;;6.50;;
70067;SDS011;57425;51.616;6.680;2023-06-22T10:14:47;11.90;;;5.97;;
70067;SDS011;57425;51.616;6.680;2023-06-22T10:17:12;11.18;;;5.72;;
70067;SDS011;57425;51.616;6.680;2023-06-22T10:19:38;13.48;;;6.10;;
70067;SDS011;57425;51.616;6.680;2023-06-22T10:22:06;11.52;;;5.85;;
70067;SDS011;57425;51.616;6.680;2023-06-22T10:24:31;12.05;;;6.38;;
70067;SDS011;57425;51.616;6.680;2023-06-22T10:26:57;12.55;;;6.55;;
70067;SDS011;57425;51.616;6.680;2023-06-22T10:29:23;15.68;;;7.18;;
70067;SDS011;57425;51.616;6.680;2023-06-22T10:31:48;13.88;;;6.30;;
70067;SDS011;57425;51.616;6.680;2023-06-22T10:34:14;20.38;;;6.57;;
70067;SDS011;57425;51.616;6.680;2023-06-22T10:36:39;9.88;;;6.25;;
70067;SDS011;57425;51.616;6.680;2023-06-22T10:39:05;12.00;;;7.32;;
70067;SDS011;57425;51.616;6.680;2023-06-22T10:41:31;10.38;;;6.07;;
70067;SDS011;57425;51.616;6.680;2023-06-22T10:43:56;14.07;;;6.80;;
70067;SDS011;57425;51.616;6.680;2023-06-22T10:46:24;10.00;;;5.72;;
70067;SDS011;57425;51.616;6.680;2023-06-22T10:48:51;13.07;;;7.32;;
70067;SDS011;57425;51.616;6.680;2023-06-22T10:51:20;11.88;;;6.43;;
70067;SDS011;57425;51.616;6.680;2023-06-22T10:53:45;15.38;;;6.55;;
70067;SDS011;57425;51.616;6.680;2023-06-22T10:56:11;10.88;;;6.70;;
70067;SDS011;57425;51.616;6.680;2023-06-22T10:58:36;10.45;;;6.18;;
70067;SDS011;57425;51.616;6.680;2023-06-22T11:01:02;12.85;;;8.02;;
70067;SDS011;57425;51.616;6.680;2023-06-22T11:03:28;10.70;;;6.28;;
70067;SDS011;57425;51.616;6.680;2023-06-22T11:05:54;16.73;;;6.53;;
70067;SDS011;57425;51.616;6.680;2023-06-22T11:08:19;10.65;;;5.82;;
70067;SDS011;57425;51.616;6.680;2023-06-22T11:10:45;14.55;;;6.57;;
70067;SDS011;57425;51.616;6.680;2023-06-22T11:13:10;14.73;;;6.95;;
70067;SDS011;57425;51.616;6.680;2023-06-22T11:15:36;13.65;;;6.35;;
70067;SDS011;57425;51.616;6.680;2023-06-22T11:18:02;13.50;;;6.10;;
70067;SDS011;57425;51.616;6.680;2023-06-22T11:20:27;10.65;;;6.05;;
70067;SDS011;57425;51.616;6.680;2023-06-22T11:22:53;13.88;;;6.82;;
70067;SDS011;57425;51.616;6.680;2023-06-22T11:25:19;12.60;;;6.63;;
70067;SDS011;57425;51.616;6.680;2023-06-22T11:27:45;14.07;;;6.53;;
70067;SDS011;57425;51.616;6.680;2023-06-22T11:30:11;10.88;;;7.07;;
70067;SDS011;57425;51.616;6.680;2023-06-22T11:32:36;13.57;;;7.63;;
70067;SDS011;57425;51.616;6.680;2023-06-22T11:35:02;11.38;;;6.70;;
70067;SDS011;57425;51.616;6.680;2023-06-22T11:37:28;14.15;;;7.32;;
70067;SDS011;57425;51.616;6.680;2023-06-22T11:39:53;11.80;;;6.22;;
70067;SDS011;57425;51.616;6.680;2023-06-22T11:42:20;16.35;;;6.80;;
70067;SDS011;57425;51.616;6.680;2023-06-22T11:44:45;11.55;;;6.50;;
70067;SDS011;57425;51.616;6.680;2023-06-22T11:47:11;12.95;;;6.60;;
70067;SDS011;57425;51.616;6.680;2023-06-22T11:49:36;11.45;;;6.47;;
70067;SDS011;57425;51.616;6.680;2023-06-22T11:52:02;10.82;;;6.22;;
70067;SDS011;57425;51.616;6.680;2023-06-22T11:54:28;11.05;;;5.60;;
70067;SDS011;57425;51.616;6.680;2023-06-22T11:56:53;11.15;;;6.25;;
70067;SDS011;57425;51.616;6.680;2023-06-22T11:59:19;10.63;;;6.50;;
70067;SDS011;57425;51.616;6.680;2023-06-22T12:01:47;15.57;;;6.82;;
70067;SDS011;57425;51.616;6.680;2023-06-22T12:04:12;10.43;;;6.43;;
70067;SDS011;57425;51.616;6.680;2023-06-22T12:06:39;19.08;;;7.63;;
70067;SDS011;57425;51.616;6.680;2023-06-22T12:09:06;13.05;;;6.93;;
70067;SDS011;57425;51.616;6.680;2023-06-22T12:11:32;14.38;;;7.35;;
70067;SDS011;57425;51.616;6.680;2023-06-22T12:13:58;13.93;;;7.45;;
70067;SDS011;57425;51.616;6.680;2023-06-22T12:16:27;14.80;;;7.88;;
70067;SDS011;57425;51.616;6.680;2023-06-22T12:18:53;13.27;;;8.10;;
70067;SDS011;57425;51.616;6.680;2023-06-22T12:21:19;18.40;;;8.60;;
70067;SDS011;57425;51.616;6.680;2023-06-22T12:23:44;14.98;;;8.05;;
70067;SDS011;57425;51.616;6.680;2023-06-22T12:26:10;15.23;;;8.43;;
70067;SDS011;57425;51.616;6.680;2023-06-22T12:28:35;17.83;;;9.43;;
70067;SDS011;57425;51.616;6.680;2023-06-22T12:31:01;15.50;;;8.48;;
70067;SDS011;57425;51.616;6.680;2023-06-22T12:33:27;16.88;;;8.40;;
70067;SDS011;57425;51.616;6.680;2023-06-22T12:35:52;15.93;;;9.07;;
70067;SDS011;57425;51.616;6.680;2023-06-22T12:38:18;18.63;;;9.02;;
70067;SDS011;57425;51.616;6.680;2023-06-22T12:40:43;18.60;;;9.80;;
70067;SDS011;57425;51.616;6.680;2023-06-22T12:43:09;14.52;;;8.93;;
70067;SDS011;57425;51.616;6.680;2023-06-22T12:45:35;17.08;;;9.20;;
70067;SDS011;57425;51.616;6.680;2023-06-22T12:48:00;19.95;;;9.80;;
70067;SDS011;57425;51.616;6.680;2023-06-22T12:50:26;19.52;;;10.45;;
70067;SDS011;57425;51.616;6.680;2023-06-22T12:52:52;15.38;;;9.45;;
70067;SDS011;57425;51.616;6.680;2023-06-22T12:55:17;19.30;;;9.07;;
70067;SDS011;57425;51.616;6.680;2023-06-22T12:57:43;12.43;;;7.22;;
70067;SDS011;57425;51.616;6.680;2023-06-22T13:00:09;13.95;;;8.57;;
70067;SDS011;57425;51.616;6.680;2023-06-22T13:02:35;16.65;;;8.93;;
70067;SDS011;57425;51.616;6.680;2023-06-22T13:05:02;14.65;;;8.75;;
70067;SDS011;57425;51.616;6.680;2023-06-22T13:07:30;17.55;;;9.70;;
70067;SDS011;57425;51.616;6.680;2023-06-22T13:09:55;17.92;;;9.52;;
70067;SDS011;57425;51.616;6.680;2023-06-22T13:12:21;16.38;;;9.50;;
70067;SDS011;57425;51.616;6.680;2023-06-22T13:14:47;20.25;;;9.55;;
70067;SDS011;57425;51.616;6.680;2023-06-22T13:17:13;15.98;;;9.57;;
70067;SDS011;57425;51.616;6.680;2023-06-22T13:19:39;19.17;;;9.70;;
70067;SDS011;57425;51.616;6.680;2023-06-22T13:22:05;20.15;;;11.13;;
70067;SDS011;57425;51.616;6.680;2023-06-22T13:24:50;16.75;;;9.52;;
70067;SDS011;57425;51.616;6.680;2023-06-22T13:27:15;19.17;;;9.85;;
70067;SDS011;57425;51.616;6.680;2023-06-22T13:29:41;18.75;;;9.57;;
70067;SDS011;57425;51.616;6.680;2023-06-22T13:32:07;18.55;;;11.00;;
70067;SDS011;57425;51.616;6.680;2023-06-22T13:34:32;17.10;;;10.35;;
70067;SDS011;57425;51.616;6.680;2023-06-22T13:36:58;19.25;;;10.98;;
70067;SDS011;57425;51.616;6.680;2023-06-22T13:39:23;17.25;;;10.20;;
70067;SDS011;57425;51.616;6.680;2023-06-22T13:41:49;14.00;;;8.75;;
70067;SDS011;57425;51.616;6.680;2023-06-22T13:44:15;14.55;;;8.57;;
70067;SDS011;57425;51.616;6.680;2023-06-22T13:46:40;20.77;;;9.57;;
70067;SDS011;57425;51.616;6.680;2023-06-22T13:49:06;18.58;;;9.90;;
70067;SDS011;57425;51.616;6.680;2023-06-22T13:51:31;16.77;;;9.05;;
70067;SDS011;57425;51.616;6.680;2023-06-22T13:53:57;15.82;;;8.68;;
70067;SDS011;57425;51.616;6.680;2023-06-22T13:56:23;17.92;;;8.65;;
70067;SDS011;57425;51.616;6.680;2023-06-22T13:58:48;17.58;;;9.32;;
70067;SDS011;57425;51.616;6.680;2023-06-22T14:01:14;15.15;;;8.75;;
70067;SDS011;57425;51.616;6.680;2023-06-22T14:03:39;15.25;;;9.18;;
70067;SDS011;57425;51.616;6.680;2023-06-22T14:06:05;14.27;;;8.40;;
70067;SDS011;57425;51.616;6.680;2023-06-22T14:08:31;14.80;;;8.23;;
70067;SDS011;57425;51.616;6.680;2023-06-22T14:10:57;17.70;;;9.60;;
70067;SDS011;57425;51.616;6.680;2023-06-22T14:13:22;14.48;;;8.13;;
70067;SDS011;57425;51.616;6.680;2023-06-22T14:15:48;19.02;;;9.25;;
70067;SDS011;57425;51.616;6.680;2023-06-22T14:18:14;14.02;;;8.55;;
70067;SDS011;57425;51.616;6.680;2023-06-22T14:20:40;15.90;;;9.48;;
70067;SDS011;57425;51.616;6.680;2023-06-22T14:23:05;16.55;;;8.63;;
70067;SDS011;57425;51.616;6.680;2023-06-22T14:25:31;17.48;;;7.85;;
70067;SDS011;57425;51.616;6.680;2023-06-22T14:27:57;14.73;;;8.23;;
70067;SDS011;57425;51.616;6.680;2023-06-22T14:30:22;16.13;;;9.27;;
70067;SDS011;57425;51.616;6.680;2023-06-22T14:32:48;15.65;;;9.48;;
70067;SDS011;57425;51.616;6.680;2023-06-22T14:35:13;15.77;;;9.70;;
70067;SDS011;57425;51.616;6.680;2023-06-22T14:37:39;15.68;;;8.25;;
70067;SDS011;57425;51.616;6.680;2023-06-22T14:40:05;15.65;;;8.88;;
70067;SDS011;57425;51.616;6.680;2023-06-22T14:42:31;13.13;;;8.18;;